Terminal Aerodrome Forecast
Issued by NWS

Home | Current Version | Previous Version | Text Only | Print | Product List | Glossary On
Versions: 1 2 3 4 5 6 7 8 9 10 11 12 13 14 15 16 17 18 19 20 21
415
FTAK31 PAJN 040222 AAA
TAFAPG
TAF AMD
PAPG 040222Z 0402/0424 VRB06KT P6SM VCSH SCT025 OVC040
      TEMPO 0402/0406 4SM -SHSN FEW006 BKN025 OVC035
     FM040600 VRB03KT 4SM BR OVC015
     FM041200 06010KT P6SM VCSH SCT030 BKN060
     FM041800 06012KT P6SM SCT030
      AMD LTD TO CLD VIS AND WIND 0406/0415=

USA.gov is the U.S. government's official web portal to all federal, state and local government web resources and services.